createdAt,value
2018-09-12T00:01:03.402Z,22.20
2018-09-12T00:03:31.617Z,22.10
2018-09-12T00:05:59.870Z,22.10
2018-09-12T00:08:28.126Z,22.10
2018-09-12T00:10:56.443Z,22.10
2018-09-12T00:13:24.864Z,22.00
2018-09-12T00:15:53.110Z,22.00
2018-09-12T00:18:21.572Z,22.00
2018-09-12T00:20:49.896Z,22.00
2018-09-12T00:25:57.782Z,22.00
2018-09-12T00:28:26.144Z,22.00
2018-09-12T00:30:54.380Z,22.00
2018-09-12T00:33:22.634Z,21.90
2018-09-12T00:35:50.967Z,21.90
2018-09-12T00:38:19.215Z,21.90
2018-09-12T00:40:47.429Z,21.90
2018-09-12T00:43:15.685Z,21.90
2018-09-12T00:45:50.174Z,21.80
2018-09-12T00:48:18.425Z,21.80
2018-09-12T00:50:46.702Z,21.80
2018-09-12T00:53:14.918Z,21.70
2018-09-12T00:55:43.131Z,21.70
2018-09-12T00:58:11.428Z,21.70
2018-09-12T01:00:39.625Z,21.70
2018-09-12T01:03:07.872Z,21.70
2018-09-12T01:05:40.502Z,21.60
2018-09-12T01:08:09.467Z,21.60
2018-09-12T01:10:37.709Z,21.60
2018-09-12T01:13:05.999Z,21.60
2018-09-12T01:15:34.284Z,21.60
2018-09-12T01:18:02.486Z,21.60
2018-09-12T01:20:30.895Z,21.50
2018-09-12T01:22:59.355Z,21.50
2018-09-12T01:25:27.608Z,21.50
2018-09-12T01:27:57.859Z,21.50
2018-09-12T01:30:26.453Z,21.50
2018-09-12T01:32:56.237Z,21.50
2018-09-12T01:35:24.592Z,21.40
2018-09-12T01:37:52.824Z,21.30
2018-09-12T01:40:21.048Z,21.30
2018-09-12T01:42:49.323Z,21.30
2018-09-12T01:45:19.049Z,21.30
2018-09-12T01:47:47.686Z,21.30
2018-09-12T01:50:16.047Z,21.30
2018-09-12T01:52:44.595Z,21.30
2018-09-12T01:55:12.836Z,21.30
2018-09-12T01:57:41.116Z,21.30
2018-09-12T02:00:13.383Z,21.30
2018-09-12T02:02:41.595Z,21.30
2018-09-12T02:05:09.818Z,21.30
2018-09-12T02:07:38.697Z,21.20
2018-09-12T02:10:08.507Z,21.20
2018-09-12T02:12:36.811Z,21.20
2018-09-12T02:15:05.575Z,21.20
2018-09-12T02:17:33.845Z,21.10
2018-09-12T02:20:02.222Z,21.10
2018-09-12T02:22:30.526Z,21.10
2018-09-12T02:24:58.752Z,21.10
2018-09-12T02:27:27.090Z,21.00
2018-09-12T02:29:55.346Z,21.00
2018-09-12T02:32:23.546Z,21.00
2018-09-12T02:34:51.779Z,21.00
2018-09-12T02:37:20.055Z,21.00
2018-09-12T02:39:48.350Z,20.90
2018-09-12T02:42:16.650Z,20.90
2018-09-12T02:44:44.982Z,20.90
2018-09-12T02:47:18.518Z,20.80
2018-09-12T02:49:46.790Z,20.80
2018-09-12T02:52:15.069Z,20.70
2018-09-12T02:54:43.347Z,20.70
2018-09-12T02:57:11.752Z,20.70
2018-09-12T02:59:39.998Z,20.60
2018-09-12T03:02:08.345Z,20.50
2018-09-12T03:04:37.259Z,20.50
2018-09-12T03:07:05.526Z,20.50
2018-09-12T03:09:33.782Z,20.50
2018-09-12T03:12:01.990Z,20.50
2018-09-12T03:14:30.223Z,20.50
2018-09-12T03:16:58.448Z,20.50
2018-09-12T03:19:26.718Z,20.50
2018-09-12T03:21:54.985Z,20.40
2018-09-12T03:24:23.249Z,20.40
2018-09-12T03:26:51.507Z,20.40
2018-09-12T03:29:19.743Z,20.40
2018-09-12T03:31:48.038Z,20.30
2018-09-12T03:34:16.267Z,20.30
2018-09-12T03:36:44.514Z,20.20
2018-09-12T03:39:12.871Z,20.20
2018-09-12T03:41:41.794Z,20.20
2018-09-12T03:44:11.369Z,20.20
2018-09-12T03:46:39.965Z,20.10
2018-09-12T03:49:08.175Z,20.10
2018-09-12T03:51:36.599Z,20.10
2018-09-12T03:54:04.847Z,20.10
2018-09-12T03:56:33.126Z,20.10
2018-09-12T03:59:01.369Z,20.10
2018-09-12T04:01:29.600Z,20.10
2018-09-12T04:03:57.820Z,20.10
2018-09-12T04:06:26.039Z,20.00
2018-09-12T04:08:54.246Z,20.00
2018-09-12T04:11:22.462Z,20.00
2018-09-12T04:13:51.406Z,20.00
2018-09-12T04:16:19.597Z,19.90
2018-09-12T04:18:47.832Z,19.90
2018-09-12T04:21:16.049Z,19.80
2018-09-12T04:23:44.307Z,19.80
2018-09-12T04:26:12.567Z,19.80
2018-09-12T04:28:41.201Z,19.80
2018-09-12T04:31:09.422Z,19.70
2018-09-12T04:33:37.647Z,19.70
2018-09-12T04:36:06.105Z,19.60
2018-09-12T04:38:34.810Z,19.60
2018-09-12T04:41:03.066Z,19.60
2018-09-12T04:43:31.347Z,19.60
2018-09-12T04:45:59.602Z,19.60
2018-09-12T04:48:27.852Z,19.60
2018-09-12T04:50:56.109Z,19.60
2018-09-12T04:53:24.353Z,19.60
2018-09-12T04:55:52.594Z,19.70
2018-09-12T04:58:20.834Z,19.70
2018-09-12T05:00:49.072Z,19.60
2018-09-12T05:03:17.348Z,19.60
2018-09-12T05:05:45.658Z,19.60
2018-09-12T05:08:13.900Z,19.50
2018-09-12T05:10:42.239Z,19.50
2018-09-12T05:13:10.520Z,19.50
2018-09-12T05:15:38.770Z,19.50
2018-09-12T05:18:07.043Z,19.50
2018-09-12T05:20:35.287Z,19.50
2018-09-12T05:23:03.521Z,19.50
2018-09-12T05:25:31.717Z,19.50
2018-09-12T05:28:00.000Z,19.50
2018-09-12T05:30:28.253Z,19.50
2018-09-12T05:32:56.628Z,19.50
2018-09-12T05:35:24.861Z,19.60
2018-09-12T05:37:53.167Z,19.50
2018-09-12T05:40:21.455Z,19.50
2018-09-12T05:42:49.738Z,19.60
2018-09-12T05:45:18.017Z,19.70
2018-09-12T05:47:46.226Z,19.70
2018-09-12T05:50:14.537Z,19.70
2018-09-12T05:52:42.766Z,19.80
2018-09-12T05:55:11.023Z,19.80
2018-09-12T05:57:39.370Z,19.90
2018-09-12T06:00:08.306Z,20.00
2018-09-12T06:02:36.674Z,20.40
2018-09-12T06:05:05.387Z,21.40
2018-09-12T06:07:33.804Z,22.70
2018-09-12T06:10:02.254Z,23.60
2018-09-12T06:12:30.462Z,23.60
2018-09-12T06:14:58.770Z,23.20
2018-09-12T06:17:27.031Z,22.70
2018-09-12T06:19:55.290Z,22.40
2018-09-12T06:22:23.941Z,22.40
2018-09-12T06:27:26.943Z,22.40
2018-09-12T06:29:55.493Z,22.30
2018-09-12T06:32:23.718Z,22.10
2018-09-12T06:34:51.964Z,21.90
2018-09-12T06:37:20.222Z,21.90
2018-09-12T06:39:48.939Z,21.80
2018-09-12T06:42:17.591Z,20.00
2018-09-12T06:44:49.897Z,21.60
2018-09-12T06:47:18.696Z,21.70
2018-09-12T06:49:48.188Z,21.70
2018-09-12T06:52:18.445Z,21.60
2018-09-12T06:54:47.018Z,21.40
2018-09-12T06:57:15.565Z,21.30
2018-09-12T06:59:44.498Z,21.30
2018-09-12T07:02:13.050Z,21.30
2018-09-12T07:04:41.289Z,21.30
2018-09-12T07:07:09.722Z,21.20
2018-09-12T07:09:38.449Z,21.10
2018-09-12T07:12:06.933Z,21.10
2018-09-12T07:14:35.480Z,21.10
2018-09-12T07:17:04.135Z,21.20
2018-09-12T07:19:32.693Z,21.20
2018-09-12T07:22:01.265Z,21.30
2018-09-12T07:24:29.908Z,21.30
2018-09-12T07:26:58.596Z,21.40
2018-09-12T07:29:27.390Z,21.50
2018-09-12T07:31:55.859Z,21.60
2018-09-12T07:34:24.541Z,21.60
2018-09-12T07:36:53.075Z,21.70
2018-09-12T07:39:21.875Z,21.80
2018-09-12T07:41:50.661Z,21.80
2018-09-12T07:44:19.465Z,21.90
2018-09-12T07:46:47.828Z,22.00
2018-09-12T07:49:16.313Z,22.10
2018-09-12T07:51:50.527Z,22.10
2018-09-12T07:54:18.789Z,22.20
2018-09-12T07:56:47.200Z,22.30
2018-09-12T07:59:15.439Z,22.30
2018-09-12T08:01:43.786Z,22.50
2018-09-12T08:04:12.022Z,22.80
2018-09-12T08:06:40.302Z,22.90
2018-09-12T08:09:10.095Z,23.10
2018-09-12T08:11:38.346Z,23.60
2018-09-12T08:14:06.672Z,25.00
2018-09-12T08:16:35.388Z,26.30
2018-09-12T08:19:03.806Z,27.00
2018-09-12T08:21:32.001Z,27.50
2018-09-12T08:24:00.311Z,27.30
2018-09-12T08:26:28.616Z,26.60
2018-09-12T08:28:57.158Z,25.90
2018-09-12T08:31:25.926Z,25.20
2018-09-12T08:33:54.267Z,24.70
2018-09-12T08:36:22.553Z,24.30
2018-09-12T08:38:50.793Z,24.20
2018-09-12T08:41:19.016Z,24.10
2018-09-12T08:43:47.363Z,24.00
2018-09-12T08:46:15.618Z,24.00
2018-09-12T08:48:43.877Z,23.90
2018-09-12T08:51:12.214Z,24.00
2018-09-12T08:53:40.440Z,24.10
2018-09-12T08:56:09.017Z,24.10
2018-09-12T08:58:37.752Z,24.20
2018-09-12T09:01:06.502Z,24.20
2018-09-12T09:03:34.748Z,24.30
2018-09-12T09:06:02.982Z,24.30
2018-09-12T09:08:31.232Z,24.30
2018-09-12T09:10:59.496Z,24.20
2018-09-12T09:13:27.785Z,24.30
2018-09-12T09:15:56.041Z,24.30
2018-09-12T09:18:25.034Z,24.30
2018-09-12T09:20:53.268Z,24.50
2018-09-12T09:23:21.550Z,24.50
2018-09-12T09:25:49.810Z,24.70
2018-09-12T09:28:18.231Z,24.80
2018-09-12T09:30:46.513Z,24.80
2018-09-12T09:33:15.307Z,24.80
2018-09-12T09:35:43.719Z,24.70
2018-09-12T09:38:12.292Z,24.70
2018-09-12T09:40:40.841Z,24.70
2018-09-12T09:43:11.454Z,24.70
2018-09-12T09:45:40.327Z,24.70
2018-09-12T09:48:08.680Z,24.70
2018-09-12T09:50:37.762Z,24.80
2018-09-12T09:53:06.507Z,24.90
2018-09-12T09:55:34.718Z,24.90
2018-09-12T09:58:03.025Z,24.90
2018-09-12T10:00:36.733Z,25.00
2018-09-12T10:03:10.385Z,25.00
2018-09-12T10:05:44.236Z,25.00
2018-09-12T10:08:17.844Z,25.10
2018-09-12T10:10:46.631Z,25.10
2018-09-12T10:13:15.695Z,24.90
2018-09-12T10:15:43.932Z,24.80
2018-09-12T10:18:12.228Z,24.80
2018-09-12T10:20:40.494Z,25.00
2018-09-12T10:23:15.444Z,25.20
2018-09-12T10:25:43.757Z,25.50
2018-09-12T10:28:12.149Z,26.00
2018-09-12T10:30:40.494Z,26.20
2018-09-12T10:33:09.096Z,26.40
2018-09-12T10:35:37.389Z,26.60
2018-09-12T10:38:05.955Z,26.80
2018-09-12T10:40:34.212Z,26.60
2018-09-12T10:43:02.468Z,26.60
2018-09-12T10:45:31.006Z,26.40
2018-09-12T10:47:59.323Z,26.30
2018-09-12T10:50:27.957Z,26.10
2018-09-12T10:52:56.305Z,26.10
2018-09-12T10:55:24.530Z,26.20
2018-09-12T10:57:52.804Z,26.10
2018-09-12T11:00:21.048Z,26.40
2018-09-12T11:02:49.559Z,26.70
2018-09-12T11:05:17.790Z,26.80
2018-09-12T11:07:46.012Z,26.70
2018-09-12T11:10:14.985Z,26.80
2018-09-12T11:12:43.413Z,26.60
2018-09-12T11:15:11.738Z,26.50
2018-09-12T11:17:40.191Z,26.70
2018-09-12T11:20:08.614Z,26.90
2018-09-12T11:22:36.898Z,26.90
2018-09-12T11:25:05.294Z,26.70
2018-09-12T11:27:33.554Z,26.80
2018-09-12T11:30:08.450Z,27.10
2018-09-12T11:32:36.710Z,27.20
2018-09-12T11:35:04.979Z,27.30
2018-09-12T11:37:33.277Z,27.30
2018-09-12T11:40:01.568Z,27.20
2018-09-12T11:42:29.900Z,27.00
2018-09-12T11:44:58.131Z,26.90
2018-09-12T11:47:26.391Z,26.80
2018-09-12T11:49:58.910Z,27.00
2018-09-12T11:52:27.354Z,27.00
2018-09-12T11:54:55.639Z,27.10
2018-09-12T11:57:24.070Z,27.10
2018-09-12T11:59:52.423Z,27.00
2018-09-12T12:02:26.997Z,27.00
2018-09-12T12:04:55.258Z,26.80
2018-09-12T12:07:23.590Z,26.50
2018-09-12T12:09:52.054Z,26.60
2018-09-12T12:12:20.439Z,26.70
2018-09-12T12:14:48.702Z,26.50
2018-09-12T12:17:17.248Z,26.40
2018-09-12T12:19:45.594Z,26.40
2018-09-12T12:22:13.980Z,26.70
2018-09-12T12:24:42.503Z,27.00
2018-09-12T12:27:10.927Z,27.10
2018-09-12T12:29:39.169Z,27.00
2018-09-12T12:32:07.990Z,26.80
2018-09-12T12:34:36.351Z,26.60
2018-09-12T12:37:04.676Z,26.60
2018-09-12T12:39:33.488Z,26.70
2018-09-12T12:42:02.108Z,27.00
2018-09-12T12:44:30.638Z,27.30
2018-09-12T12:46:58.893Z,27.50
2018-09-12T12:49:27.130Z,27.80
2018-09-12T12:51:55.706Z,27.90
2018-09-12T12:54:24.253Z,28.10
2018-09-12T12:56:52.760Z,28.30
2018-09-12T12:59:21.118Z,28.10
2018-09-12T13:01:49.412Z,27.80
2018-09-12T13:04:17.647Z,27.80
2018-09-12T13:06:45.921Z,27.90
2018-09-12T13:09:14.320Z,28.00
2018-09-12T13:11:42.539Z,28.00
2018-09-12T13:14:11.372Z,28.00
2018-09-12T13:16:39.748Z,28.00
2018-09-12T13:19:08.061Z,27.90
2018-09-12T13:21:36.444Z,27.60
2018-09-12T13:24:04.803Z,27.50
2018-09-12T13:26:33.621Z,27.50
2018-09-12T13:29:02.566Z,27.50
2018-09-12T13:31:31.095Z,27.60
2018-09-12T13:33:59.369Z,27.50
2018-09-12T13:36:27.658Z,27.50
2018-09-12T13:38:56.393Z,27.40
2018-09-12T13:41:24.651Z,27.50
2018-09-12T13:43:52.962Z,27.50
2018-09-12T13:46:21.257Z,27.30
2018-09-12T13:48:49.480Z,27.10
2018-09-12T13:51:17.840Z,27.10
2018-09-12T13:53:46.091Z,27.20
2018-09-12T13:56:14.315Z,27.30
2018-09-12T13:58:42.565Z,27.40
2018-09-12T14:01:10.832Z,27.40
2018-09-12T14:03:39.108Z,27.50
2018-09-12T14:06:07.341Z,27.40
2018-09-12T14:08:35.585Z,27.30
2018-09-12T14:11:03.812Z,27.30
2018-09-12T14:13:32.059Z,27.40
2018-09-12T14:16:00.383Z,27.40
2018-09-12T14:18:28.830Z,27.30
2018-09-12T14:20:57.146Z,27.10
2018-09-12T14:23:25.566Z,27.10
2018-09-12T14:25:53.842Z,27.00
2018-09-12T14:28:22.356Z,27.00
2018-09-12T14:30:50.956Z,27.30
2018-09-12T14:33:19.410Z,27.30
2018-09-12T14:35:48.120Z,27.30
2018-09-12T14:38:16.525Z,27.40
2018-09-12T14:40:44.858Z,27.00
2018-09-12T14:43:13.873Z,26.80
2018-09-12T14:45:42.224Z,26.70
2018-09-12T14:48:10.544Z,26.60
2018-09-12T14:50:39.359Z,26.30
2018-09-12T14:53:07.576Z,26.20
2018-09-12T14:55:36.074Z,26.10
2018-09-12T14:58:04.717Z,26.10
2018-09-12T15:00:32.975Z,26.00
2018-09-12T15:03:01.234Z,25.90
2018-09-12T15:05:29.921Z,25.90
2018-09-12T15:07:58.147Z,25.80
2018-09-12T15:10:26.621Z,25.50
2018-09-12T15:12:54.877Z,25.40
2018-09-12T15:15:23.181Z,25.20
2018-09-12T15:17:51.809Z,24.90
2018-09-12T15:20:20.513Z,24.80
2018-09-12T15:22:48.968Z,24.60
2018-09-12T15:25:17.592Z,24.60
2018-09-12T15:27:45.988Z,24.70
2018-09-12T15:30:14.476Z,24.50
2018-09-12T15:32:43.090Z,24.40
2018-09-12T15:35:11.411Z,24.40
2018-09-12T15:37:39.941Z,24.40
2018-09-12T15:40:08.806Z,24.40
2018-09-12T15:42:37.618Z,24.50
2018-09-12T15:45:06.138Z,24.60
2018-09-12T15:47:34.851Z,24.60
2018-09-12T15:50:03.178Z,24.50
2018-09-12T15:52:31.425Z,24.30
2018-09-12T15:54:59.705Z,24.20
2018-09-12T15:57:28.042Z,24.00
2018-09-12T15:59:58.264Z,23.90
2018-09-12T16:02:27.223Z,23.80
2018-09-12T16:04:55.585Z,23.60
2018-09-12T16:07:24.360Z,23.50
2018-09-12T16:09:52.817Z,23.30
2018-09-12T16:12:21.357Z,23.20
2018-09-12T16:14:49.682Z,23.30
2018-09-12T16:17:18.509Z,23.30
2018-09-12T16:19:46.835Z,23.10
2018-09-12T16:22:16.675Z,22.80
2018-09-12T16:24:45.027Z,22.70
2018-09-12T16:27:13.308Z,22.50
2018-09-12T16:29:41.658Z,22.20
2018-09-12T16:32:09.989Z,22.20
2018-09-12T16:34:38.302Z,22.40
2018-09-12T16:37:06.602Z,22.40
2018-09-12T16:39:34.951Z,22.30
2018-09-12T16:42:03.236Z,22.30
2018-09-12T16:44:31.579Z,22.20
2018-09-12T16:46:59.845Z,22.10
2018-09-12T16:49:28.276Z,22.00
2018-09-12T16:51:56.562Z,22.00
2018-09-12T16:54:25.012Z,21.90
2018-09-12T16:56:53.776Z,21.90
2018-09-12T16:59:22.155Z,21.80
2018-09-12T17:01:50.482Z,21.70
2018-09-12T17:04:18.782Z,21.60
2018-09-12T17:06:47.049Z,21.50
2018-09-12T17:09:15.366Z,21.40
2018-09-12T17:11:43.697Z,21.40
2018-09-12T17:14:11.947Z,21.30
2018-09-12T17:16:40.185Z,21.20
2018-09-12T17:19:08.513Z,21.00
2018-09-12T17:21:36.705Z,20.90
2018-09-12T17:24:04.958Z,20.90
2018-09-12T17:26:33.269Z,20.90
2018-09-12T17:29:01.930Z,20.80
2018-09-12T17:31:30.240Z,20.70
2018-09-12T17:33:58.709Z,20.60
2018-09-12T17:36:28.008Z,20.60
2018-09-12T17:38:56.963Z,20.50
2018-09-12T17:41:25.527Z,20.50
2018-09-12T17:43:53.794Z,20.50
2018-09-12T17:46:22.301Z,20.40
2018-09-12T17:48:50.544Z,20.30
2018-09-12T17:51:18.878Z,20.30
2018-09-12T17:53:47.532Z,20.10
2018-09-12T17:56:15.829Z,20.00
2018-09-12T17:58:44.158Z,20.00
2018-09-12T18:01:12.662Z,19.90
2018-09-12T18:03:40.927Z,19.90
2018-09-12T18:06:09.206Z,19.80
2018-09-12T18:08:37.424Z,19.70
2018-09-12T18:11:05.752Z,19.70
2018-09-12T18:13:33.936Z,19.70
2018-09-12T18:16:02.243Z,19.70
2018-09-12T18:18:30.525Z,19.70
2018-09-12T18:20:58.773Z,19.80
2018-09-12T18:23:27.050Z,19.80
2018-09-12T18:25:55.439Z,19.90
2018-09-12T18:28:23.726Z,19.80
2018-09-12T18:30:52.066Z,19.70
2018-09-12T18:33:20.293Z,19.70
2018-09-12T18:35:48.485Z,19.70
2018-09-12T18:38:16.767Z,19.70
2018-09-12T18:40:45.112Z,19.80
2018-09-12T18:43:13.369Z,19.70
2018-09-12T18:45:41.649Z,19.70
2018-09-12T18:48:09.905Z,19.80
2018-09-12T18:50:38.164Z,19.80
2018-09-12T18:53:06.397Z,19.70
2018-09-12T18:55:35.038Z,19.70
2018-09-12T18:58:03.321Z,19.70
2018-09-12T19:00:31.572Z,19.60
2018-09-12T19:03:00.353Z,19.60
2018-09-12T19:05:29.074Z,19.60
2018-09-12T19:07:57.277Z,19.50
2018-09-12T19:10:25.518Z,19.40
2018-09-12T19:12:53.871Z,19.30
2018-09-12T19:15:22.056Z,19.40
2018-09-12T19:17:50.289Z,19.40
2018-09-12T19:20:18.527Z,19.40
2018-09-12T19:22:46.770Z,19.50
2018-09-12T19:25:14.995Z,19.50
2018-09-12T19:27:43.208Z,19.50
2018-09-12T19:30:11.460Z,19.50
2018-09-12T19:32:39.686Z,19.40
2018-09-12T19:35:07.907Z,19.40
2018-09-12T19:37:36.153Z,19.50
2018-09-12T19:40:04.432Z,19.50
2018-09-12T19:42:33.089Z,19.40
2018-09-12T19:45:01.373Z,19.50
2018-09-12T19:47:29.629Z,19.40
2018-09-12T19:49:57.955Z,19.40
2018-09-12T19:52:26.191Z,19.40
2018-09-12T19:54:54.456Z,19.40
2018-09-12T19:57:22.653Z,19.40
2018-09-12T19:59:50.909Z,19.40
2018-09-12T20:02:24.191Z,19.50
2018-09-12T20:04:52.902Z,19.60
2018-09-12T20:07:21.197Z,19.70
2018-09-12T20:09:49.927Z,19.70
2018-09-12T20:12:18.179Z,19.70
2018-09-12T20:14:46.404Z,19.50
2018-09-12T20:17:14.626Z,19.50
2018-09-12T20:19:42.859Z,19.60
2018-09-12T20:22:11.611Z,19.60
2018-09-12T20:24:39.917Z,19.60
2018-09-12T20:27:08.509Z,19.60
2018-09-12T20:29:37.112Z,19.60
2018-09-12T20:32:05.379Z,19.60
2018-09-12T20:34:33.739Z,19.60
2018-09-12T20:37:01.949Z,19.70
2018-09-12T20:39:31.230Z,19.70
2018-09-12T20:41:59.454Z,19.80
2018-09-12T20:44:27.705Z,19.90
2018-09-12T20:46:55.916Z,19.90
2018-09-12T20:49:24.133Z,19.90
2018-09-12T20:51:52.366Z,19.70
2018-09-12T20:54:20.635Z,19.70
2018-09-12T20:56:48.874Z,19.50
2018-09-12T20:59:17.093Z,19.40
2018-09-12T21:01:45.409Z,19.40
2018-09-12T21:04:13.647Z,19.50
2018-09-12T21:06:41.899Z,19.50
2018-09-12T21:09:12.046Z,19.50
2018-09-12T21:11:40.709Z,19.50
2018-09-12T21:14:09.493Z,19.50
2018-09-12T21:16:37.759Z,19.50
2018-09-12T21:19:06.599Z,19.50
2018-09-12T21:21:35.008Z,19.50
2018-09-12T21:24:03.285Z,19.50
2018-09-12T21:26:31.579Z,19.50
2018-09-12T21:28:59.995Z,19.40
2018-09-12T21:31:28.240Z,19.30
2018-09-12T21:33:56.509Z,19.20
2018-09-12T21:36:24.861Z,19.20
2018-09-12T21:38:53.410Z,19.20
2018-09-12T21:41:21.684Z,19.10
2018-09-12T21:43:49.956Z,19.10
2018-09-12T21:46:18.171Z,19.10
2018-09-12T21:48:46.423Z,19.10
2018-09-12T21:51:14.653Z,19.10
2018-09-12T21:53:42.906Z,19.10
2018-09-12T21:56:11.498Z,19.00
2018-09-12T21:58:39.796Z,19.00
2018-09-12T22:01:08.019Z,18.90
2018-09-12T22:03:36.265Z,18.90
2018-09-12T22:06:04.470Z,19.00
2018-09-12T22:08:32.694Z,19.10
2018-09-12T22:11:00.905Z,19.10
2018-09-12T22:13:29.147Z,19.10
2018-09-12T22:15:57.415Z,19.00
2018-09-12T22:18:25.629Z,18.90
2018-09-12T22:20:53.833Z,19.00
2018-09-12T22:23:22.054Z,19.00
2018-09-12T22:25:50.258Z,19.10
2018-09-12T22:28:18.561Z,19.20
2018-09-12T22:30:46.842Z,19.10
2018-09-12T22:33:15.133Z,19.00
2018-09-12T22:35:43.379Z,19.00
2018-09-12T22:38:11.598Z,19.10
2018-09-12T22:40:39.881Z,19.10
2018-09-12T22:43:08.146Z,19.10
2018-09-12T22:45:36.535Z,19.00
2018-09-12T22:48:04.905Z,19.10
2018-09-12T22:50:33.133Z,19.10
2018-09-12T22:53:01.399Z,19.20
2018-09-12T22:55:30.484Z,19.20
2018-09-12T22:57:58.709Z,19.20
2018-09-12T23:00:26.918Z,19.10
2018-09-12T23:02:55.265Z,19.00
2018-09-12T23:05:23.504Z,19.00
2018-09-12T23:07:51.744Z,19.00
2018-09-12T23:10:20.016Z,19.10
2018-09-12T23:12:48.545Z,19.10
2018-09-12T23:15:16.785Z,19.10
2018-09-12T23:17:45.091Z,19.10
2018-09-12T23:20:13.366Z,19.20
2018-09-12T23:22:41.637Z,19.20
2018-09-12T23:25:09.910Z,19.20
2018-09-12T23:27:44.771Z,19.20
2018-09-12T23:30:13.023Z,19.20
2018-09-12T23:32:41.283Z,19.30
2018-09-12T23:35:09.542Z,19.30
2018-09-12T23:37:37.776Z,19.30
2018-09-12T23:40:06.070Z,19.30
2018-09-12T23:42:34.285Z,19.30
2018-09-12T23:45:02.501Z,19.30
2018-09-12T23:47:30.737Z,19.30
2018-09-12T23:49:58.998Z,19.30
2018-09-12T23:52:27.241Z,19.30
2018-09-12T23:54:55.459Z,19.40
2018-09-12T23:57:23.732Z,19.40
2018-09-12T23:59:51.951Z,19.40
